createdAt,value
2023-02-11T00:01:21.749Z,66.04
2023-02-11T00:04:12.781Z,62.93
2023-02-11T00:07:08.751Z,61.60
2023-02-11T00:10:02.902Z,56.22
2023-02-11T00:12:55.797Z,53.21
2023-02-11T00:15:48.882Z,53.02
2023-02-11T00:18:44.704Z,54.35
2023-02-11T00:21:37.552Z,55.31
2023-02-11T00:24:32.091Z,56.17
2023-02-11T00:27:24.802Z,57.47
2023-02-11T00:30:17.835Z,58.82
2023-02-11T00:33:10.633Z,59.32
2023-02-11T00:36:08.171Z,59.82
2023-02-11T00:39:04.447Z,60.50
2023-02-11T00:41:57.177Z,61.25
2023-02-11T00:44:50.423Z,64.88
2023-02-11T00:47:36.448Z,68.60
2023-02-11T00:50:29.702Z,66.18
2023-02-11T00:53:22.439Z,63.06
2023-02-11T00:56:15.253Z,58.19
2023-02-11T00:59:08.264Z,54.96
2023-02-11T01:02:01.566Z,54.58
2023-02-11T01:04:54.406Z,55.05
2023-02-11T01:07:48.382Z,55.89
2023-02-11T01:10:41.449Z,56.62
2023-02-11T01:13:37.324Z,57.45
2023-02-11T01:16:30.246Z,58.35
2023-02-11T01:19:23.015Z,59.61
2023-02-11T01:22:15.839Z,60.34
2023-02-11T01:25:09.451Z,60.73
2023-02-11T01:28:03.169Z,61.03
2023-02-11T01:30:48.857Z,64.51
2023-02-11T01:33:42.000Z,68.55
2023-02-11T01:36:34.840Z,66.10
2023-02-11T01:39:28.011Z,62.86
2023-02-11T01:42:23.585Z,58.10
2023-02-11T01:45:54.936Z,54.68
2023-02-11T01:48:53.341Z,54.31
2023-02-11T01:51:49.903Z,55.23
2023-02-11T01:55:05.157Z,56.15
2023-02-11T01:58:02.421Z,57.26
2023-02-11T02:00:57.718Z,58.18
2023-02-11T02:03:54.016Z,59.09
2023-02-11T02:06:51.143Z,60.04
2023-02-11T02:09:57.737Z,60.33
2023-02-11T02:12:50.878Z,61.01
2023-02-11T02:15:37.602Z,63.98
2023-02-11T02:18:45.296Z,68.76
2023-02-11T02:22:10.526Z,66.61
2023-02-11T02:25:21.017Z,63.22
2023-02-11T02:28:39.096Z,57.23
2023-02-11T02:31:53.703Z,53.49
2023-02-11T02:34:52.470Z,53.41
2023-02-11T02:37:53.917Z,53.86
2023-02-11T02:40:55.880Z,55.56
2023-02-11T02:43:51.850Z,56.10
2023-02-11T02:46:38.464Z,57.43
2023-02-11T02:49:33.125Z,58.49
2023-02-11T02:52:40.643Z,59.11
2023-02-11T02:55:54.199Z,59.15
2023-02-11T02:59:22.179Z,59.75
2023-02-11T03:02:23.182Z,60.31
2023-02-11T03:05:31.499Z,61.06
2023-02-11T03:08:31.285Z,61.15
2023-02-11T03:11:25.900Z,64.40
2023-02-11T03:14:20.675Z,68.25
2023-02-11T03:17:15.569Z,66.78
2023-02-11T03:20:12.497Z,63.58
2023-02-11T03:23:06.256Z,57.66
2023-02-11T03:26:11.885Z,54.31
2023-02-11T03:29:15.668Z,53.96
2023-02-11T03:32:09.480Z,54.76
2023-02-11T03:35:05.659Z,55.95
2023-02-11T03:38:02.034Z,57.26
2023-02-11T03:40:57.061Z,57.87
2023-02-11T03:43:55.849Z,58.55
2023-02-11T03:46:52.972Z,59.58
2023-02-11T03:49:37.493Z,60.51
2023-02-11T03:52:30.706Z,60.82
2023-02-11T03:55:20.218Z,61.46
2023-02-11T03:58:13.517Z,64.51
2023-02-11T04:01:09.920Z,67.50
2023-02-11T04:04:02.749Z,65.25
2023-02-11T04:06:48.406Z,64.12
2023-02-11T04:09:41.737Z,61.26
2023-02-11T04:12:34.838Z,57.31
2023-02-11T04:15:28.118Z,54.40
2023-02-11T04:18:20.928Z,54.20
2023-02-11T04:21:01.075Z,54.96
2023-02-11T04:23:53.852Z,56.15
2023-02-11T04:26:46.836Z,57.01
2023-02-11T04:29:40.241Z,57.92
2023-02-11T04:32:33.386Z,58.71
2023-02-11T04:35:26.145Z,59.68
2023-02-11T04:38:19.024Z,60.35
2023-02-11T04:41:11.885Z,61.28
2023-02-11T04:44:04.886Z,64.43
2023-02-11T04:46:57.677Z,67.77
2023-02-11T04:49:50.476Z,65.48
2023-02-11T04:52:43.366Z,63.29
2023-02-11T04:55:36.539Z,61.30
2023-02-11T04:58:29.430Z,56.64
2023-02-11T05:01:22.338Z,53.70
2023-02-11T05:04:15.672Z,53.20
2023-02-11T05:07:08.564Z,53.66
2023-02-11T05:10:01.559Z,54.51
2023-02-11T05:12:56.028Z,55.74
2023-02-11T05:15:50.148Z,56.57
2023-02-11T05:18:44.538Z,57.61
2023-02-11T05:21:37.741Z,58.45
2023-02-11T05:24:30.634Z,59.51
2023-02-11T05:27:24.441Z,59.91
2023-02-11T05:30:17.913Z,60.38
2023-02-11T05:33:10.750Z,61.27
2023-02-11T05:36:06.077Z,63.79
2023-02-11T05:38:58.930Z,67.13
2023-02-11T05:41:51.815Z,65.48
2023-02-11T05:44:45.255Z,63.11
2023-02-11T05:47:30.621Z,60.00
2023-02-11T05:50:16.042Z,57.26
2023-02-11T05:53:08.891Z,55.18
2023-02-11T05:56:01.960Z,54.95
2023-02-11T05:58:54.900Z,55.81
2023-02-11T06:01:47.669Z,56.98
2023-02-11T06:04:40.592Z,57.69
2023-02-11T06:07:33.528Z,58.89
2023-02-11T06:10:26.273Z,59.80
2023-02-11T06:13:19.850Z,60.59
2023-02-11T06:16:12.711Z,60.99
2023-02-11T06:19:05.815Z,62.95
2023-02-11T06:21:58.772Z,65.71
2023-02-11T06:25:01.382Z,65.35
2023-02-11T06:27:54.742Z,63.40
2023-02-11T06:30:41.391Z,62.19
2023-02-11T06:33:34.616Z,60.26
2023-02-11T06:36:27.825Z,57.27
2023-02-11T06:39:20.733Z,55.49
2023-02-11T06:42:08.023Z,55.42
2023-02-11T06:44:54.191Z,56.10
2023-02-11T06:47:46.975Z,56.94
2023-02-11T06:50:39.734Z,57.81
2023-02-11T06:53:32.794Z,58.58
2023-02-11T06:56:28.235Z,59.46
2023-02-11T06:59:14.283Z,60.00
2023-02-11T07:02:07.223Z,60.42
2023-02-11T07:04:56.754Z,60.85
2023-02-11T07:07:49.676Z,60.93
2023-02-11T07:10:42.885Z,61.34
2023-02-11T07:13:36.496Z,61.60
2023-02-11T07:16:21.055Z,61.72
2023-02-11T07:19:14.229Z,61.98
2023-02-11T07:21:49.986Z,63.55
2023-02-11T07:24:25.070Z,65.25
2023-02-11T07:27:18.186Z,64.81
2023-02-11T07:30:16.583Z,63.23
2023-02-11T07:33:09.695Z,61.29
2023-02-11T07:36:05.356Z,57.99
2023-02-11T07:38:58.539Z,55.05
2023-02-11T07:41:47.918Z,54.50
2023-02-11T07:44:40.850Z,55.77
2023-02-11T07:47:35.781Z,56.21
2023-02-11T07:50:19.750Z,56.60
2023-02-11T07:53:11.710Z,56.88
2023-02-11T07:56:06.090Z,58.15
2023-02-11T07:58:51.782Z,58.45
2023-02-11T08:01:44.808Z,58.73
2023-02-11T08:04:38.289Z,58.66
2023-02-11T08:07:31.337Z,58.99
2023-02-11T08:10:27.359Z,59.28
2023-02-11T08:13:20.269Z,59.52
2023-02-11T08:16:21.641Z,59.81
2023-02-11T08:19:17.117Z,60.09
2023-02-11T08:22:10.061Z,60.06
2023-02-11T08:25:06.249Z,60.24
2023-02-11T08:27:57.886Z,60.06
2023-02-11T08:30:33.103Z,60.20
2023-02-11T08:33:16.057Z,59.94
2023-02-11T08:36:14.080Z,59.95
2023-02-11T08:39:22.502Z,59.89
2023-02-11T08:42:09.250Z,59.98
2023-02-11T08:45:02.255Z,59.78
2023-02-11T08:47:48.077Z,59.71
2023-02-11T08:50:28.199Z,60.05
2023-02-11T08:53:21.121Z,60.09
2023-02-11T08:55:55.847Z,60.03
2023-02-11T08:58:49.032Z,59.91
2023-02-11T09:01:43.623Z,59.99
2023-02-11T09:04:36.675Z,59.98
2023-02-11T09:07:32.878Z,60.13
2023-02-11T09:10:25.929Z,60.13
2023-02-11T09:13:21.566Z,60.02
2023-02-11T09:16:06.994Z,60.03
2023-02-11T09:19:02.365Z,59.97
2023-02-11T09:21:54.046Z,59.81
2023-02-11T09:24:37.027Z,59.78
2023-02-11T09:27:31.367Z,59.59
2023-02-11T09:30:24.954Z,59.32
2023-02-11T09:33:17.913Z,59.13
2023-02-11T09:36:12.039Z,59.13
2023-02-11T09:39:06.606Z,59.05
2023-02-11T09:42:22.001Z,58.91
2023-02-11T09:45:20.412Z,58.52
2023-02-11T09:48:06.173Z,58.09
2023-02-11T09:50:41.452Z,58.58
2023-02-11T09:53:29.929Z,58.24
2023-02-11T09:56:23.171Z,57.98
2023-02-11T09:59:17.755Z,57.68
2023-02-11T10:02:17.655Z,57.61
2023-02-11T10:05:35.194Z,57.49
2023-02-11T10:08:28.689Z,57.64
2023-02-11T10:11:32.088Z,57.48
2023-02-11T10:14:21.296Z,57.44
2023-02-11T10:17:22.735Z,57.39
2023-02-11T10:20:26.404Z,57.09
2023-02-11T10:23:22.508Z,56.56
2023-02-11T10:26:20.759Z,56.65
2023-02-11T10:29:00.901Z,56.48
2023-02-11T10:31:57.929Z,56.63
2023-02-11T10:34:52.091Z,56.57
2023-02-11T10:37:45.753Z,56.64
2023-02-11T10:40:39.361Z,56.71
2023-02-11T10:43:36.328Z,56.61
2023-02-11T10:46:33.578Z,56.67
2023-02-11T10:49:42.307Z,56.75
2023-02-11T10:52:35.146Z,56.71
2023-02-11T10:55:30.126Z,56.53
2023-02-11T10:58:33.295Z,56.10
2023-02-11T11:01:38.696Z,56.49
2023-02-11T11:04:45.116Z,56.34
2023-02-11T11:07:39.690Z,56.43
2023-02-11T11:10:44.618Z,56.26
2023-02-11T11:13:40.077Z,56.13
2023-02-11T11:16:28.349Z,56.35
2023-02-11T11:19:25.338Z,56.31
2023-02-11T11:22:24.898Z,56.23
2023-02-11T11:25:30.696Z,55.71
2023-02-11T11:28:26.544Z,55.82
2023-02-11T11:31:23.425Z,55.68
2023-02-11T11:34:31.036Z,55.69
2023-02-11T11:37:27.955Z,55.34
2023-02-11T11:40:29.143Z,55.34
2023-02-11T11:43:23.924Z,55.29
2023-02-11T11:46:07.801Z,55.03
2023-02-11T11:48:53.209Z,55.02
2023-02-11T11:51:43.552Z,54.74
2023-02-11T11:54:26.537Z,54.76
2023-02-11T11:57:24.380Z,54.50
2023-02-11T12:00:22.222Z,54.11
2023-02-11T12:03:29.293Z,54.16
2023-02-11T12:06:33.785Z,54.41
2023-02-11T12:09:34.013Z,54.35
2023-02-11T12:12:40.889Z,54.14
2023-02-11T12:15:36.480Z,54.28
2023-02-11T12:18:38.645Z,54.10
2023-02-11T12:21:55.484Z,54.38
2023-02-11T12:25:10.053Z,54.51
2023-02-11T12:28:09.061Z,54.25
2023-02-11T12:31:15.341Z,54.47
2023-02-11T12:34:27.263Z,54.01
2023-02-11T12:37:43.944Z,54.36
2023-02-11T12:40:26.647Z,54.33
2023-02-11T12:43:25.798Z,54.23
2023-02-11T12:46:43.523Z,54.63
2023-02-11T12:49:55.903Z,55.06
2023-02-11T12:53:19.210Z,55.20
2023-02-11T12:56:18.952Z,55.41
2023-02-11T12:59:18.755Z,55.52
2023-02-11T13:02:13.516Z,55.66
2023-02-11T13:05:19.995Z,55.89
2023-02-11T13:08:17.685Z,55.90
2023-02-11T13:11:15.165Z,55.92
2023-02-11T13:14:17.896Z,55.99
2023-02-11T13:17:21.293Z,55.86
2023-02-11T13:20:27.668Z,56.09
2023-02-11T13:23:24.582Z,56.26
2023-02-11T13:26:25.020Z,56.30
2023-02-11T13:29:33.346Z,56.40
2023-02-11T13:32:19.088Z,56.60
2023-02-11T13:35:06.082Z,56.55
2023-02-11T13:38:00.409Z,56.72
2023-02-11T13:41:04.482Z,56.91
2023-02-11T13:44:27.411Z,56.95
2023-02-11T13:47:43.122Z,57.18
2023-02-11T13:50:40.950Z,57.25
2023-02-11T13:53:45.739Z,57.46
2023-02-11T13:56:41.230Z,57.60
2023-02-11T13:59:51.500Z,57.76
2023-02-11T14:03:01.852Z,57.97
2023-02-11T14:06:30.774Z,58.25
2023-02-11T14:09:40.083Z,58.38
2023-02-11T14:12:36.224Z,58.72
2023-02-11T14:16:04.545Z,59.10
2023-02-11T14:19:04.567Z,59.75
2023-02-11T14:22:06.021Z,60.59
2023-02-11T14:25:02.193Z,61.17
2023-02-11T14:27:59.332Z,65.91
2023-02-11T14:31:05.179Z,69.80
2023-02-11T14:34:24.347Z,69.12
2023-02-11T14:37:33.097Z,67.49
2023-02-11T14:40:33.452Z,65.52
2023-02-11T14:43:30.704Z,63.81
2023-02-11T14:46:27.785Z,62.39
2023-02-11T14:49:29.782Z,61.19
2023-02-11T14:52:30.396Z,57.61
2023-02-11T14:55:34.650Z,55.64
2023-02-11T14:58:29.675Z,56.79
2023-02-11T15:01:35.429Z,58.59
2023-02-11T15:04:30.282Z,63.81
2023-02-11T15:07:23.652Z,68.02
2023-02-11T15:10:25.898Z,67.54
2023-02-11T15:13:27.303Z,66.64
2023-02-11T15:16:23.817Z,65.44
2023-02-11T15:19:25.736Z,63.40
2023-02-11T15:22:25.038Z,62.92
2023-02-11T15:25:20.040Z,62.54
2023-02-11T15:28:26.058Z,62.38
2023-02-11T15:31:21.166Z,61.98
2023-02-11T15:34:11.608Z,61.33
2023-02-11T15:36:54.731Z,60.80
2023-02-11T15:39:47.813Z,60.86
2023-02-11T15:42:52.595Z,60.96
2023-02-11T15:45:55.447Z,61.27
2023-02-11T15:48:44.127Z,61.05
2023-02-11T15:51:42.527Z,60.95
2023-02-11T15:54:34.674Z,60.71
2023-02-11T15:57:27.816Z,59.86
2023-02-11T16:00:23.500Z,57.43
2023-02-11T16:03:09.455Z,56.81
2023-02-11T16:06:24.145Z,57.88
2023-02-11T16:09:33.531Z,59.16
2023-02-11T16:12:29.353Z,65.75
2023-02-11T16:15:48.351Z,67.91
2023-02-11T16:18:52.033Z,67.18
2023-02-11T16:21:49.214Z,65.82
2023-02-11T16:24:42.920Z,64.26
2023-02-11T16:27:40.073Z,63.04
2023-02-11T16:30:38.454Z,62.94
2023-02-11T16:33:31.746Z,63.17
2023-02-11T16:36:18.616Z,62.14
2023-02-11T16:39:12.068Z,61.09
2023-02-11T16:42:07.438Z,60.27
2023-02-11T16:45:00.358Z,57.44
2023-02-11T16:47:44.480Z,56.51
2023-02-11T16:50:38.034Z,57.23
2023-02-11T16:53:26.616Z,59.16
2023-02-11T16:56:19.742Z,63.56
2023-02-11T16:59:13.186Z,67.70
2023-02-11T17:02:00.681Z,67.35
2023-02-11T17:04:48.204Z,66.16
2023-02-11T17:07:41.296Z,64.70
2023-02-11T17:10:37.892Z,63.78
2023-02-11T17:13:30.861Z,62.55
2023-02-11T17:16:27.782Z,61.36
2023-02-11T17:19:22.302Z,61.21
2023-02-11T17:22:15.361Z,61.22
2023-02-11T17:25:09.453Z,60.29
2023-02-11T17:28:02.437Z,57.59
2023-02-11T17:30:55.439Z,56.55
2023-02-11T17:33:48.792Z,57.53
2023-02-11T17:36:42.077Z,60.05
2023-02-11T17:39:35.110Z,65.61
2023-02-11T17:42:29.450Z,68.44
2023-02-11T17:45:22.622Z,67.26
2023-02-11T17:48:16.075Z,65.53
2023-02-11T17:51:00.552Z,64.00
2023-02-11T17:53:43.420Z,62.80
2023-02-11T17:56:26.391Z,61.64
2023-02-11T17:59:19.807Z,60.92
2023-02-11T18:02:14.405Z,60.16
2023-02-11T18:05:08.087Z,57.33
2023-02-11T18:08:01.384Z,55.80
2023-02-11T18:10:54.319Z,56.72
2023-02-11T18:13:54.832Z,59.03
2023-02-11T18:16:50.649Z,63.98
2023-02-11T18:19:43.643Z,67.49
2023-02-11T18:22:40.219Z,66.12
2023-02-11T18:25:33.504Z,64.64
2023-02-11T18:28:26.641Z,63.18
2023-02-11T18:31:22.031Z,62.28
2023-02-11T18:34:17.255Z,61.18
2023-02-11T18:37:10.413Z,60.79
2023-02-11T18:39:47.338Z,59.92
2023-02-11T18:42:40.372Z,57.00
2023-02-11T18:45:34.215Z,55.87
2023-02-11T18:48:09.822Z,57.41
2023-02-11T18:51:02.617Z,58.41
2023-02-11T18:53:55.908Z,62.49
2023-02-11T18:56:50.143Z,66.59
2023-02-11T18:59:28.041Z,66.19
2023-02-11T19:02:22.075Z,65.22
2023-02-11T19:05:15.791Z,64.50
2023-02-11T19:08:10.269Z,63.30
2023-02-11T19:11:06.842Z,62.90
2023-02-11T19:13:59.626Z,62.12
2023-02-11T19:16:57.458Z,61.49
2023-02-11T19:19:50.563Z,61.19
2023-02-11T19:22:44.958Z,61.03
2023-02-11T19:25:37.946Z,60.39
2023-02-11T19:28:33.202Z,60.30
2023-02-11T19:31:16.449Z,59.62
2023-02-11T19:34:09.453Z,57.38
2023-02-11T19:37:02.296Z,58.30
2023-02-11T19:39:55.379Z,60.68
2023-02-11T19:42:48.365Z,65.88
2023-02-11T19:45:41.561Z,67.45
2023-02-11T19:48:27.142Z,65.98
2023-02-11T19:51:20.729Z,64.30
2023-02-11T19:54:13.617Z,63.24
2023-02-11T19:57:06.833Z,62.36
2023-02-11T20:00:01.503Z,61.47
2023-02-11T20:02:54.444Z,61.01
2023-02-11T20:05:40.361Z,60.60
2023-02-11T20:08:33.548Z,60.36
2023-02-11T20:11:28.254Z,59.82
2023-02-11T20:14:12.921Z,58.50
2023-02-11T20:17:08.158Z,57.36
2023-02-11T20:20:01.360Z,58.42
2023-02-11T20:22:36.792Z,62.91
2023-02-11T20:25:17.850Z,66.27
2023-02-11T20:27:54.088Z,65.57
2023-02-11T20:30:34.741Z,63.63
2023-02-11T20:33:28.594Z,63.16
2023-02-11T20:36:16.697Z,61.85
2023-02-11T20:39:17.245Z,60.93
2023-02-11T20:42:14.431Z,60.58
2023-02-11T20:45:09.337Z,60.25
2023-02-11T20:48:02.211Z,59.94
2023-02-11T20:50:54.223Z,59.72
2023-02-11T20:53:50.034Z,59.75
2023-02-11T20:56:45.502Z,59.80
2023-02-11T20:59:40.006Z,59.70
2023-02-11T21:02:33.039Z,59.83
2023-02-11T21:05:25.863Z,59.90
2023-02-11T21:08:19.366Z,59.66
2023-02-11T21:11:12.547Z,58.84
2023-02-11T21:14:06.065Z,57.33
2023-02-11T21:16:59.345Z,59.36
2023-02-11T21:19:52.828Z,63.26
2023-02-11T21:22:38.436Z,66.10
2023-02-11T21:25:32.618Z,65.25
2023-02-11T21:28:27.382Z,64.48
2023-02-11T21:31:25.115Z,64.27
2023-02-11T21:34:17.991Z,64.02
2023-02-11T21:37:09.516Z,63.56
2023-02-11T21:40:02.427Z,63.40
2023-02-11T21:42:56.865Z,62.83
2023-02-11T21:45:51.712Z,62.40
2023-02-11T21:48:44.735Z,62.13
2023-02-11T21:51:38.085Z,62.04
2023-02-11T21:54:33.794Z,61.46
2023-02-11T21:57:26.559Z,60.89
2023-02-11T22:00:21.209Z,60.83
2023-02-11T22:03:15.029Z,60.86
2023-02-11T22:06:01.597Z,60.88
2023-02-11T22:08:55.105Z,60.61
2023-02-11T22:11:49.372Z,60.64
2023-02-11T22:14:42.203Z,60.37
2023-02-11T22:17:36.277Z,60.73
2023-02-11T22:20:29.312Z,60.84
2023-02-11T22:23:22.623Z,60.89
2023-02-11T22:26:17.651Z,61.21
2023-02-11T22:29:10.916Z,60.98
2023-02-11T22:32:03.833Z,60.88
2023-02-11T22:34:46.004Z,60.97
2023-02-11T22:37:38.808Z,60.59
2023-02-11T22:40:31.759Z,60.37
2023-02-11T22:43:24.755Z,60.18
2023-02-11T22:46:20.573Z,60.55
2023-02-11T22:49:15.707Z,60.94
2023-02-11T22:52:08.752Z,60.70
2023-02-11T22:55:01.656Z,60.75
2023-02-11T22:57:54.430Z,61.09
2023-02-11T23:00:47.275Z,60.45
2023-02-11T23:03:40.486Z,60.52
2023-02-11T23:06:34.396Z,60.40
2023-02-11T23:09:28.363Z,60.62
2023-02-11T23:12:21.426Z,60.56
2023-02-11T23:15:15.312Z,60.57
2023-02-11T23:18:08.696Z,60.53
2023-02-11T23:21:06.813Z,61.01
2023-02-11T23:23:59.010Z,61.65
2023-02-11T23:26:51.456Z,61.68
2023-02-11T23:29:44.293Z,61.38
2023-02-11T23:32:41.019Z,61.41
2023-02-11T23:35:34.189Z,61.46
2023-02-11T23:38:28.815Z,61.88
2023-02-11T23:41:22.237Z,61.63
2023-02-11T23:44:17.806Z,61.73
2023-02-11T23:47:10.628Z,61.66
2023-02-11T23:50:05.184Z,61.01
2023-02-11T23:52:50.961Z,61.02
2023-02-11T23:55:45.806Z,61.21
2023-02-11T23:58:39.030Z,61.63
